Gnadenhutten, Ohio
Current Conditions -  °F | °C
As of 8:53 AM on Monday 24 Nov 2014 (Local Time) from KPHD Reporting Station
Broken Clouds Broken Clouds  
Wind Chill: 61°   Ceiling: 4700
Heat Index: 61°   Visibility: 10mi
Dew Point: 53°   Wind: 12mph
Humidity: 75%   Direction: 180°S
Pressure: 29.38"   Gusts: 22mph
Location:  40.36°N, 81.43°W
Report Text: KPHD 241353Z AUTO 18010G19KT 10SM BKN047 BKN060 16/12 A2938 RMK AO2 SLP948 T01610117
Loading
Personal Weather Stations






























Interactive Weather Map New forecast layout! Learn more

10-Day Weather Forecast

Advertisements
Track Severe Weather on mobile